Time;durP1;ratioP1;P1;durP2;ratioP2;P2;SDS_P1;SDS_P2;PMS_P1;PMS_P2;Temp;Humidity;BMP_temperature;BMP_pressure;BME280_temperature;BME280_humidity;BME280_pressure;Samples;Min_cycle;Max_cycle;Signal;HPM_P1;HPM_P2
2023/01/02 00:00:20;;;;;;;7.30;3.80;;;;;;;10.76;100.00;100980.19;5113616;28;20284;-37
2023/01/02 00:02:45;;;;;;;10.23;4.15;;;;;;;10.80;100.00;100967.03;5114478;28;20413;-37
2023/01/02 00:05:10;;;;;;;8.97;3.73;;;;;;;10.86;100.00;100966.13;5113877;28;20059;-37
2023/01/02 00:07:36;;;;;;;9.33;3.60;;;;;;;10.90;100.00;100966.50;5114612;28;20494;-37
2023/01/02 00:10:01;;;;;;;8.63;3.80;;;;;;;10.95;100.00;100972.03;5114113;28;20308;-37
2023/01/02 00:12:27;;;;;;;10.05;3.83;;;;;;;10.95;100.00;100980.97;5113794;28;20479;-37
2023/01/02 00:14:52;;;;;;;6.87;3.40;;;;;;;10.98;100.00;100983.22;5114090;28;20031;-36
2023/01/02 00:17:18;;;;;;;10.17;3.43;;;;;;;10.93;100.00;100974.13;5113370;28;20035;-37
2023/01/02 00:19:43;;;;;;;9.07;3.50;;;;;;;10.98;100.00;100967.00;5114273;28;20031;-37
2023/01/02 00:22:09;;;;;;;8.38;3.63;;;;;;;11.03;100.00;100980.66;5113402;28;20028;-37
2023/01/02 00:24:34;;;;;;;7.23;3.70;;;;;;;11.03;100.00;100969.00;5114559;28;20062;-37
2023/01/02 00:27:00;;;;;;;7.50;3.77;;;;;;;11.05;100.00;100959.59;5113764;28;20619;-37
2023/01/02 00:29:25;;;;;;;5.73;3.10;;;;;;;11.04;100.00;100966.06;5113936;28;20106;-37
2023/01/02 00:31:50;;;;;;;5.80;3.07;;;;;;;11.03;100.00;100950.91;5113591;28;20692;-37
2023/01/02 00:34:16;;;;;;;8.67;3.90;;;;;;;11.07;100.00;100949.34;5113616;28;20031;-37
2023/01/02 00:36:41;;;;;;;8.87;3.93;;;;;;;11.07;100.00;100948.53;5096046;28;20038;-37
2023/01/02 00:39:06;;;;;;;10.13;3.87;;;;;;;11.08;100.00;100942.91;5113318;28;20059;-37
2023/01/02 00:41:31;;;;;;;9.00;3.50;;;;;;;11.09;100.00;100941.84;5113552;28;20103;-37
2023/01/02 00:43:57;;;;;;;10.00;3.63;;;;;;;11.11;100.00;100947.00;5117514;28;20031;-37
2023/01/02 00:46:22;;;;;;;10.30;3.33;;;;;;;11.11;100.00;100941.59;5117429;28;20082;-37
2023/01/02 00:48:47;;;;;;;7.47;4.10;;;;;;;11.05;100.00;100931.72;5117215;28;20522;-37
2023/01/02 00:51:13;;;;;;;7.38;3.38;;;;;;;11.11;100.00;100946.19;5116707;28;20023;-37
2023/01/02 00:53:38;;;;;;;7.47;3.90;;;;;;;11.08;100.00;100936.66;5117149;28;20448;-37
2023/01/02 00:56:04;;;;;;;7.93;3.97;;;;;;;11.17;100.00;100939.84;5117021;28;20027;-37
2023/01/02 00:58:29;;;;;;;11.00;4.30;;;;;;;11.17;100.00;100940.66;5117322;28;20049;-37
2023/01/02 01:00:54;;;;;;;6.40;3.80;;;;;;;11.20;100.00;100932.09;5116613;28;20426;-37
2023/01/02 01:03:20;;;;;;;10.53;4.43;;;;;;;11.22;100.00;100929.97;5117805;28;20023;-37
2023/01/02 01:05:45;;;;;;;8.18;3.75;;;;;;;11.23;100.00;100930.81;5116611;28;20037;-37
2023/01/02 01:08:11;;;;;;;7.83;4.27;;;;;;;11.15;100.00;100904.91;5116769;28;20028;-37
2023/01/02 01:10:36;;;;;;;8.40;3.13;;;;;;;11.17;100.00;100910.06;5116450;28;20276;-37
2023/01/02 01:13:03;;;;;;;8.73;4.45;;;;;;;11.20;100.00;100918.56;5116739;28;20264;-37
2023/01/02 01:15:28;;;;;;;6.78;3.38;;;;;;;11.28;100.00;100922.81;5116655;28;20028;-37
2023/01/02 01:17:53;;;;;;;7.43;3.20;;;;;;;11.28;100.00;100918.22;5117026;28;20023;-37
2023/01/02 01:20:19;;;;;;;8.27;4.07;;;;;;;11.35;100.00;100916.22;5116581;28;20031;-37
2023/01/02 01:22:44;;;;;;;9.57;4.00;;;;;;;11.26;100.00;100900.56;5116594;28;20031;-37
2023/01/02 01:25:10;;;;;;;10.93;4.27;;;;;;;11.39;100.00;100907.63;5116809;28;20023;-37
2023/01/02 01:27:35;;;;;;;9.05;3.85;;;;;;;11.38;100.00;100914.94;5116424;28;20085;-37
2023/01/02 01:30:01;;;;;;;6.37;2.97;;;;;;;11.37;100.00;100916.00;5116113;28;20024;-37
2023/01/02 01:32:28;;;;;;;8.77;3.55;;;;;;;11.40;100.00;100915.50;5116385;28;20368;-37
2023/01/02 01:34:53;;;;;;;7.10;3.60;;;;;;;11.40;100.00;100915.50;5116608;28;20035;-37
2023/01/02 01:37:18;;;;;;;6.90;3.57;;;;;;;11.43;100.00;100922.34;5116505;28;20031;-37
2023/01/02 01:39:44;;;;;;;6.23;3.10;;;;;;;11.46;100.00;100922.69;5098440;28;20101;-37
2023/01/02 01:42:12;;;;;;;8.17;3.63;;;;;;;11.47;100.00;100928.97;5116664;28;20357;-37
2023/01/02 01:44:45;;;;;;;7.75;3.33;;;;;;;11.48;100.00;100908.94;5116728;28;20023;-37
2023/01/02 01:47:38;;;;;;;10.30;3.15;;;;;;;11.49;100.00;100927.66;5115936;28;20462;-37
2023/01/02 01:50:08;;;;;;;8.75;3.03;;;;;;;11.51;100.00;100922.81;5053870;28;20135;-38
2023/01/02 01:52:39;;;;;;;8.55;3.35;;;;;;;11.49;100.00;100930.34;5052532;28;20102;-37
2023/01/02 01:55:16;;;;;;;9.40;3.35;;;;;;;11.49;100.00;100932.25;5053147;28;20047;-37
2023/01/02 01:57:53;;;;;;;7.68;3.20;;;;;;;11.52;100.00;100931.78;5053551;28;20036;-37
2023/01/02 02:00:19;;;;;;;8.20;3.03;;;;;;;11.44;100.00;100927.53;5053602;28;20068;-37
2023/01/02 02:02:48;;;;;;;8.73;2.85;;;;;;;11.54;100.00;100940.50;5053091;28;20044;-37
2023/01/02 02:05:18;;;;;;;6.22;3.05;;;;;;;11.50;100.00;100940.13;5052760;28;20120;-37
2023/01/02 02:07:52;;;;;;;5.63;2.85;;;;;;;11.53;100.00;100934.25;5052710;28;20041;-37
2023/01/02 02:10:18;;;;;;;7.35;3.00;;;;;;;11.52;100.00;100943.44;5052989;28;20067;-38
2023/01/02 02:12:43;;;;;;;6.80;2.80;;;;;;;11.47;100.00;100928.97;5052417;28;20036;-37
2023/01/02 02:15:14;;;;;;;7.47;2.83;;;;;;;11.49;100.00;100933.06;5053134;28;20040;-37
2023/01/02 02:18:09;;;;;;;9.35;3.05;;;;;;;11.50;100.00;100936.59;5053301;28;20128;-37
2023/01/02 02:20:37;;;;;;;10.40;3.75;;;;;;;11.46;100.00;100932.69;5052873;28;20120;-37
2023/01/02 02:23:35;;;;;;;8.40;2.85;;;;;;;11.49;100.00;100932.25;5052459;28;20035;-37
2023/01/02 02:26:18;;;;;;;8.52;3.25;;;;;;;11.48;100.00;100941.44;4997495;28;20113;-37
2023/01/02 02:29:11;;;;;;;9.27;3.22;;;;;;;11.48;100.00;100938.72;5052962;28;20060;-37
2023/01/02 02:32:24;;;;;;;7.43;2.92;;;;;;;11.47;100.00;100939.78;5052325;28;20036;-37
2023/01/02 02:35:04;;;;;;;6.68;3.25;;;;;;;11.34;100.00;100911.03;4973798;28;20038;-37
2023/01/02 02:37:36;;;;;;;9.50;3.33;;;;;;;11.51;100.00;100935.53;4973737;28;20482;-37
2023/01/02 02:40:14;;;;;;;5.97;2.78;;;;;;;11.51;100.00;100939.06;4973513;28;20035;-37
2023/01/02 02:43:06;;;;;;;7.28;3.10;;;;;;;11.49;100.00;100940.38;4973840;28;20038;-37
2023/01/02 02:45:46;;;;;;;10.65;3.22;;;;;;;11.46;100.00;100933.53;4973607;28;20062;-37
2023/01/02 02:48:32;;;;;;;5.63;2.67;;;;;;;11.51;100.00;100939.06;4973518;28;20043;-37
2023/01/02 02:51:08;;;;;;;5.90;2.80;;;;;;;11.48;100.00;100931.41;4973767;28;20141;-37
2023/01/02 02:53:42;;;;;;;7.85;3.20;;;;;;;11.51;100.00;100933.66;4973471;28;20054;-37
2023/01/02 02:56:10;;;;;;;7.38;2.90;;;;;;;11.53;100.00;100945.09;4973392;28;20074;-37
2023/01/02 02:58:37;;;;;;;6.57;2.72;;;;;;;11.56;100.00;100943.78;4973171;28;20054;-37
2023/01/02 03:01:06;;;;;;;7.25;3.00;;;;;;;11.55;100.00;100934.81;4989595;28;20048;-37
2023/01/02 03:03:31;;;;;;;8.65;2.90;;;;;;;11.54;100.00;100930.47;5032269;28;20048;-38
2023/01/02 03:06:17;;;;;;;6.63;2.93;;;;;;;11.56;100.00;100917.50;5072468;28;20036;-37
2023/01/02 03:08:54;;;;;;;7.85;2.97;;;;;;;11.56;100.00;100938.34;5094430;28;20020;-37
2023/01/02 03:11:25;;;;;;;5.75;2.35;;;;;;;11.48;100.00;100915.19;5094295;28;20081;-37
2023/01/02 03:13:53;;;;;;;7.93;3.63;;;;;;;11.56;100.00;100932.94;5093604;28;20476;-37
2023/01/02 03:16:25;;;;;;;6.57;2.80;;;;;;;11.57;100.00;100927.31;5094380;28;20080;-37
2023/01/02 03:19:00;;;;;;;4.90;2.30;;;;;;;11.57;100.00;100927.31;5094224;28;20047;-37
2023/01/02 03:21:25;;;;;;;9.80;3.40;;;;;;;11.57;100.00;100919.19;5094170;28;20039;-38
2023/01/02 03:23:51;;;;;;;5.77;3.13;;;;;;;11.56;100.00;100925.63;5093834;28;20032;-38
2023/01/02 03:26:22;;;;;;;5.82;2.40;;;;;;;11.57;100.00;100935.44;5093721;28;20426;-38
2023/01/02 03:28:52;;;;;;;7.75;2.70;;;;;;;11.53;100.00;100926.13;5094166;28;20051;-38
2023/01/02 03:31:20;;;;;;;7.65;2.55;;;;;;;11.61;100.00;100924.94;5093530;28;20024;-38
2023/01/02 03:33:52;;;;;;;7.60;2.92;;;;;;;11.51;100.00;100905.75;5094321;28;20054;-38
2023/01/02 03:36:23;;;;;;;4.97;2.67;;;;;;;11.63;100.00;100930.13;5094031;28;20422;-38
2023/01/02 03:39:05;;;;;;;6.90;2.75;;;;;;;11.63;100.00;100930.94;5093713;28;20024;-38
2023/01/02 03:41:40;;;;;;;7.57;2.92;;;;;;;11.66;100.00;100926.94;5093805;28;20103;-38
2023/01/02 03:44:09;;;;;;;7.15;3.25;;;;;;;11.62;100.00;100925.78;5093599;28;20027;-38
2023/01/02 03:46:43;;;;;;;8.30;3.00;;;;;;;11.65;100.00;100936.13;5093787;28;20039;-38
2023/01/02 03:49:28;;;;;;;8.20;2.65;;;;;;;11.66;100.00;100935.06;5093862;28;20032;-38
2023/01/02 03:51:54;;;;;;;7.57;2.80;;;;;;;11.65;100.00;100944.25;5099899;28;20451;-38
2023/01/02 03:54:20;;;;;;;5.70;2.57;;;;;;;11.66;100.00;100949.44;5114225;28;20039;-38
2023/01/02 03:57:04;;;;;;;6.90;3.00;;;;;;;11.67;100.00;100950.28;5113599;28;20564;-38
2023/01/02 03:59:45;;;;;;;5.88;2.30;;;;;;;11.67;100.00;100956.50;5113935;28;20027;-38
2023/01/02 04:02:14;;;;;;;10.35;3.10;;;;;;;11.65;100.00;100952.38;5114443;28;20028;-38
2023/01/02 04:04:42;;;;;;;6.65;2.58;;;;;;;11.66;100.00;100962.97;5113601;28;20028;-38
2023/01/02 04:07:13;;;;;;;8.32;2.40;;;;;;;11.66;100.00;100954.03;5113370;28;20116;-38
2023/01/02 04:09:41;;;;;;;5.75;2.78;;;;;;;11.63;100.00;100955.34;5113839;28;20073;-38
2023/01/02 04:12:10;;;;;;;7.00;2.85;;;;;;;11.58;100.00;100953.31;5113697;28;20024;-38
2023/01/02 04:14:47;;;;;;;7.25;2.55;;;;;;;11.62;100.00;100953.69;5113428;28;20034;-38
2023/01/02 04:17:16;;;;;;;6.18;2.78;;;;;;;11.58;100.00;100950.63;5117246;28;20403;-38
2023/01/02 04:19:56;;;;;;;7.75;2.47;;;;;;;11.57;100.00;100956.28;5118097;28;20107;-38
2023/01/02 04:22:29;;;;;;;13.95;3.88;;;;;;;11.55;100.00;100955.66;5117965;28;20028;-38
2023/01/02 04:25:00;;;;;;;5.70;2.60;;;;;;;11.51;100.00;100949.06;5118269;28;20031;-38
2023/01/02 04:27:34;;;;;;;9.93;3.22;;;;;;;11.51;100.00;100971.56;5117552;28;20084;-38
2023/01/02 04:30:00;;;;;;;6.82;2.78;;;;;;;11.52;100.00;100965.09;5117585;28;20060;-38
2023/01/02 04:32:32;;;;;;;6.05;2.47;;;;;;;11.53;100.00;100982.19;5117768;28;20110;-38
2023/01/02 04:34:59;;;;;;;6.45;2.65;;;;;;;11.50;100.00;100978.03;5117245;28;20024;-38
2023/01/02 04:37:27;;;;;;;5.88;2.60;;;;;;;11.52;100.00;100977.81;5117382;28;20031;-38
2023/01/02 04:39:57;;;;;;;6.72;2.50;;;;;;;11.44;100.00;100973.56;5117687;28;20376;-38
2023/01/02 04:42:23;;;;;;;6.05;2.60;;;;;;;11.52;100.00;100980.53;5117635;28;20024;-38
2023/01/02 04:44:48;;;;;;;8.57;2.67;;;;;;;11.51;100.00;100985.09;5117840;28;20031;-38
2023/01/02 04:47:13;;;;;;;7.70;2.80;;;;;;;11.48;100.00;100982.88;5117198;28;20023;-38
2023/01/02 04:49:39;;;;;;;6.73;3.13;;;;;;;11.48;100.00;100985.59;5116982;28;20046;-38
2023/01/02 04:52:04;;;;;;;8.33;2.53;;;;;;;11.47;100.00;100988.53;5117639;28;20048;-38
2023/01/02 04:54:29;;;;;;;9.70;2.80;;;;;;;11.43;100.00;100985.47;5117168;28;20072;-38
2023/01/02 04:56:55;;;;;;;5.23;2.50;;;;;;;11.46;100.00;100986.84;5117714;28;20036;-38
2023/01/02 04:59:20;;;;;;;10.93;3.30;;;;;;;11.40;100.00;100972.38;5117407;28;20024;-38
2023/01/02 05:01:45;;;;;;;9.27;2.90;;;;;;;11.47;100.00;100989.34;5117227;28;20031;-38
2023/01/02 05:04:11;;;;;;;4.67;3.00;;;;;;;11.38;100.00;100977.22;5117521;28;20032;-38
2023/01/02 05:06:36;;;;;;;6.37;2.77;;;;;;;11.51;100.00;101001.34;5117132;28;20032;-38
2023/01/02 05:09:01;;;;;;;8.77;3.37;;;;;;;11.51;100.00;101001.34;5117173;28;20016;-38
2023/01/02 05:11:26;;;;;;;5.37;2.80;;;;;;;11.45;100.00;100994.16;5116751;28;20081;-37
2023/01/02 05:13:52;;;;;;;7.23;2.60;;;;;;;11.50;100.00;101005.13;5116487;28;20261;-38
2023/01/02 05:16:17;;;;;;;8.27;3.27;;;;;;;11.45;100.00;100996.03;5117490;28;20024;-38
2023/01/02 05:18:42;;;;;;;6.47;3.00;;;;;;;11.44;100.00;100992.53;5116693;28;20032;-38
2023/01/02 05:23:47;;;;;;;5.90;2.73;;;;;;;11.51;100.00;101014.06;5116796;28;20452;-38
2023/01/02 05:23:58;;;;;;;8.18;3.35;;;;;;;11.50;100.00;101007.81;5116181;28;20098;-38
2023/01/02 05:26:23;;;;;;;8.23;3.20;;;;;;;11.50;100.00;101013.25;5116945;28;20031;-38
2023/01/02 05:28:52;;;;;;;6.32;2.28;;;;;;;11.54;100.00;101017.13;5115557;28;20098;-38
2023/01/02 05:31:17;;;;;;;5.70;2.45;;;;;;;11.55;100.00;101017.97;5116323;28;20055;-38
2023/01/02 05:33:43;;;;;;;6.15;2.50;;;;;;;11.50;100.00;101002.41;5116689;28;20061;-38
2023/01/02 05:36:09;;;;;;;17.50;3.67;;;;;;;11.55;100.00;101013.38;5116580;28;20028;-38
2023/01/02 05:38:34;;;;;;;;;;;;;;;11.59;100.00;101021.84;5116753;28;20027;-38
2023/01/02 05:41:05;;;;;;;6.43;2.53;;;;;;;11.56;100.00;101025.84;5116506;28;19939;-38
2023/01/02 05:43:31;;;;;;;4.40;2.35;;;;;;;11.59;100.00;101036.22;5116187;28;20031;-38
2023/01/02 05:45:57;;;;;;;;;;;;;;;11.60;100.00;101037.88;5116520;28;20059;-38
2023/01/02 05:48:22;;;;;;;5.82;2.25;;;;;;;11.56;100.00;101038.56;5116060;28;19962;-38
2023/01/02 05:50:48;;;;;;;4.57;2.45;;;;;;;11.57;100.00;101046.47;5116270;28;20066;-38
2023/01/02 05:53:13;;;;;;;4.23;2.00;;;;;;;11.58;100.00;101048.13;5117108;28;20051;-38
2023/01/02 05:55:38;;;;;;;5.97;2.10;;;;;;;11.54;100.00;101037.97;5116459;28;20032;-38
2023/01/02 05:58:04;;;;;;;6.60;2.20;;;;;;;11.54;100.00;101043.41;5116475;28;20027;-38
2023/01/02 06:00:29;;;;;;;5.17;2.40;;;;;;;11.56;100.00;101047.50;5115961;28;20093;-38
2023/01/02 06:02:54;;;;;;;9.20;2.53;;;;;;;11.57;100.00;101054.59;5115606;28;20395;-38
2023/01/02 06:05:19;;;;;;;8.27;2.90;;;;;;;11.57;100.00;101048.38;5115981;28;20481;-38
2023/01/02 06:07:45;;;;;;;4.87;2.30;;;;;;;11.57;100.00;101048.38;5115951;28;20032;-38
2023/01/02 06:10:10;;;;;;;5.63;1.93;;;;;;;11.54;100.00;101046.09;5115899;28;20384;-38
2023/01/02 06:12:35;;;;;;;7.87;2.67;;;;;;;11.56;100.00;101062.94;5097095;28;20464;-38
2023/01/02 06:15:01;;;;;;;5.50;2.03;;;;;;;11.50;100.00;101059.28;5115924;28;20282;-38
2023/01/02 06:17:26;;;;;;;4.37;2.20;;;;;;;11.52;100.00;101056.38;5115474;28;20028;-38
2023/01/02 06:19:51;;;;;;;2.70;1.87;;;;;;;11.51;100.00;101071.75;5115289;28;20068;-38
2023/01/02 06:22:17;;;;;;;3.90;2.03;;;;;;;11.50;100.00;101083.66;5116182;28;20032;-38
2023/01/02 06:24:42;;;;;;;6.40;2.63;;;;;;;11.35;100.00;101056.19;5115822;28;20027;-38
2023/01/02 06:27:07;;;;;;;6.13;2.07;;;;;;;11.45;100.00;101121.44;5115213;28;20024;-38
2023/01/02 06:29:33;;;;;;;5.30;1.90;;;;;;;11.26;100.00;101139.59;5097657;28;20032;-38
2023/01/02 06:31:58;;;;;;;2.10;1.17;;;;;;;11.12;100.00;101151.66;5115094;28;20024;-38
2023/01/02 06:34:23;;;;;;;2.87;1.47;;;;;;;10.94;100.00;101147.09;5115813;28;20035;-38
2023/01/02 06:36:48;;;;;;;1.73;1.00;;;;;;;10.88;100.00;101166.09;5114878;28;20495;-38
2023/01/02 06:39:14;;;;;;;1.03;0.60;;;;;;;10.71;100.00;101163.97;5114184;28;20558;-38
2023/01/02 06:41:39;;;;;;;1.23;0.60;;;;;;;10.60;100.00;101172.00;5115085;28;20026;-38
2023/01/02 06:44:04;;;;;;;1.07;0.40;;;;;;;10.51;100.00;101166.06;5115050;28;20023;-38
2023/01/02 06:46:30;;;;;;;0.67;0.40;;;;;;;10.35;100.00;101174.75;5115061;28;20031;-38
2023/01/02 06:48:55;;;;;;;0.77;0.47;;;;;;;10.27;100.00;101163.16;5115192;28;20027;-38
2023/01/02 06:51:22;;;;;;;0.77;0.40;;;;;;;10.26;100.00;101207.44;5114773;28;20023;-38
2023/01/02 06:53:47;;;;;;;1.08;0.50;;;;;;;10.08;100.00;101191.13;5114882;28;20054;-36
2023/01/02 06:56:16;;;;;;;1.05;0.40;;;;;;;10.09;100.00;101214.38;5114777;28;20020;-36
2023/01/02 06:58:41;;;;;;;0.40;0.40;;;;;;;10.05;100.00;101216.72;5114469;28;20030;-36
2023/01/02 07:01:10;;;;;;;0.70;0.43;;;;;;;10.07;100.00;101224.59;5115236;28;20165;-36
2023/01/02 07:03:36;;;;;;;0.82;0.70;;;;;;;9.94;100.00;101212.00;5115207;28;20029;-37
2023/01/02 07:06:10;;;;;;;0.95;0.80;;;;;;;9.96;100.00;101223.44;5114321;28;20382;-37
2023/01/02 07:08:36;;;;;;;1.17;1.00;;;;;;;9.95;100.00;101243.38;5115079;28;20027;-37
2023/01/02 07:11:10;;;;;;;1.40;1.20;;;;;;;9.92;100.00;101262.72;5114489;28;20110;-37
2023/01/02 07:13:36;;;;;;;1.50;1.20;;;;;;;9.87;100.00;101259.84;5114434;28;20058;-37
2023/01/02 07:16:06;;;;;;;1.52;1.38;;;;;;;9.83;100.00;101264.03;5114702;28;20105;-37
2023/01/02 07:18:32;;;;;;;1.20;0.90;;;;;;;9.80;100.00;101275.25;5114922;28;20096;-37
2023/01/02 07:20:58;;;;;;;1.23;1.00;;;;;;;9.70;100.00;101266.78;5114019;28;20035;-37
2023/01/02 07:23:24;;;;;;;1.40;1.20;;;;;;;9.74;100.00;101289.63;5114882;28;20444;-37
2023/01/02 07:25:52;;;;;;;1.67;1.15;;;;;;;9.74;100.00;101287.75;5114298;28;20490;-37
2023/01/02 07:28:17;;;;;;;1.33;1.17;;;;;;;9.70;100.00;101300.00;5114740;28;20042;-37
2023/01/02 07:30:43;;;;;;;1.30;1.20;;;;;;;9.71;100.00;101307.09;5114509;28;20452;-37
2023/01/02 07:33:08;;;;;;;1.40;1.30;;;;;;;9.66;100.00;101312.31;5114545;28;20050;-37
2023/01/02 07:35:33;;;;;;;2.70;1.70;;;;;;;9.66;100.00;101317.72;5096759;28;20455;-37
2023/01/02 07:37:58;;;;;;;1.93;1.47;;;;;;;9.60;100.00;101323.09;5114792;28;20055;-37
2023/01/02 07:40:24;;;;;;;1.60;1.50;;;;;;;9.68;100.00;101334.50;5095611;28;20118;-37
2023/01/02 07:42:49;;;;;;;2.30;1.63;;;;;;;9.62;100.00;101326.44;5114974;28;20027;-37
2023/01/02 07:45:14;;;;;;;2.13;1.93;;;;;;;9.65;100.00;101348.44;5114425;28;20433;-37
2023/01/02 07:47:40;;;;;;;1.87;1.73;;;;;;;9.63;100.00;101338.91;5114171;28;20019;-37
2023/01/02 07:50:05;;;;;;;2.00;1.77;;;;;;;9.59;100.00;101356.56;5114113;28;20023;-37
2023/01/02 07:52:30;;;;;;;1.95;1.80;;;;;;;9.56;100.00;101357.78;5120385;28;20055;-37
2023/01/02 07:54:56;;;;;;;2.00;1.80;;;;;;;9.51;100.00;101361.13;5120811;28;20033;-37
2023/01/02 07:57:21;;;;;;;1.80;1.70;;;;;;;9.59;100.00;101380.84;5120522;28;20027;-37
2023/01/02 07:59:48;;;;;;;2.13;1.93;;;;;;;9.56;100.00;101390.19;5121040;28;20043;-37
2023/01/02 08:02:14;;;;;;;2.00;1.80;;;;;;;9.52;100.00;101380.88;5120667;28;20024;-37
2023/01/02 08:04:39;;;;;;;2.42;2.22;;;;;;;9.59;100.00;101389.78;5120469;28;20112;-37
2023/01/02 08:07:05;;;;;;;2.27;2.07;;;;;;;9.61;100.00;101394.97;5120635;28;20038;-37
2023/01/02 08:09:30;;;;;;;2.80;2.17;;;;;;;9.59;100.00;101399.75;5120354;28;20495;-37
2023/01/02 08:11:55;;;;;;;2.30;2.10;;;;;;;9.55;100.00;101410.97;5120667;28;20027;-37
2023/01/02 08:14:21;;;;;;;2.17;1.90;;;;;;;9.51;100.00;101417.81;5120941;28;20588;-37
2023/01/02 08:16:46;;;;;;;2.77;2.20;;;;;;;9.52;100.00;101424.09;5120898;28;20486;-37
2023/01/02 08:19:11;;;;;;;2.47;1.93;;;;;;;9.51;100.00;101430.50;5120590;28;20084;-37
2023/01/02 08:21:36;;;;;;;2.20;1.80;;;;;;;9.49;100.00;101438.81;5120519;28;20028;-37
2023/01/02 08:24:02;;;;;;;2.20;1.97;;;;;;;9.47;100.00;101442.78;5120184;28;20126;-37
2023/01/02 08:26:27;;;;;;;2.03;1.55;;;;;;;9.45;100.00;101440.28;5120137;28;20088;-37
2023/01/02 08:28:53;;;;;;;2.93;1.80;;;;;;;9.45;100.00;101444.84;5120538;28;20027;-37
2023/01/02 08:31:20;;;;;;;3.27;1.80;;;;;;;9.40;100.00;101445.47;5120157;28;20031;-37
2023/01/02 08:33:46;;;;;;;1.77;1.63;;;;;;;9.39;100.00;101451.91;5121252;28;20062;-37
2023/01/02 08:36:13;;;;;;;;;;;;;;;9.46;100.00;101458.13;5120742;28;20024;-37
2023/01/02 08:38:38;;;;;;;1.77;1.50;;;;;;;9.31;100.00;101449.41;5120642;28;19911;-37
2023/01/02 08:41:04;;;;;;;2.27;1.60;;;;;;;9.39;100.00;101467.28;5120362;28;20744;-37
2023/01/02 08:43:32;;;;;;;2.30;1.65;;;;;;;9.33;100.00;101474.34;5120618;28;20464;-37
2023/01/02 08:45:57;;;;;;;1.90;1.70;;;;;;;9.30;100.00;101466.66;5120550;28;20035;-37
2023/01/02 08:48:22;;;;;;;2.13;1.43;;;;;;;9.17;100.00;101453.97;5120827;28;20027;-37
2023/01/02 08:50:48;;;;;;;1.77;1.57;;;;;;;9.27;100.00;101481.41;5120175;28;20028;-37
2023/01/02 08:53:14;;;;;;;2.45;1.67;;;;;;;9.29;100.00;101486.59;5120603;28;20058;-37
2023/01/02 08:55:39;;;;;;;2.10;1.60;;;;;;;9.28;100.00;101493.03;5120264;28;20372;-37
2023/01/02 08:58:04;;;;;;;2.67;1.40;;;;;;;9.26;100.00;101498.59;5120308;28;20423;-38
2023/01/02 09:00:30;;;;;;;2.60;1.67;;;;;;;9.26;100.00;101503.19;5120223;28;20605;-37
2023/01/02 09:02:55;;;;;;;1.90;1.67;;;;;;;9.28;100.00;101510.03;5117612;28;20121;-37
2023/01/02 09:05:20;;;;;;;2.40;1.97;;;;;;;9.26;100.00;101504.00;5117430;28;20106;-37
2023/01/02 09:07:46;;;;;;;2.57;2.03;;;;;;;9.26;100.00;101501.31;5116839;28;20495;-37
2023/01/02 09:10:11;;;;;;;3.83;2.43;;;;;;;9.26;100.00;101511.28;5117688;28;20024;-37
2023/01/02 09:12:36;;;;;;;3.23;2.83;;;;;;;9.23;100.00;101509.00;5116817;28;20378;-37
2023/01/02 09:15:03;;;;;;;3.07;2.80;;;;;;;9.26;100.00;101522.91;5117089;28;20024;-37
2023/01/02 09:17:28;;;;;;;;;;;;;;;9.32;100.00;101532.06;5117154;28;20357;-37
2023/01/02 09:19:53;;;;;;;4.57;2.78;;;;;;;9.21;100.00;101533.47;5116928;28;19966;-37
2023/01/02 09:22:19;;;;;;;6.03;3.47;;;;;;;9.22;100.00;101537.88;5116619;28;20229;-37
2023/01/02 09:24:44;;;;;;;3.93;3.30;;;;;;;9.17;100.00;101536.78;5116646;28;20058;-37
2023/01/02 09:27:10;;;;;;;4.93;3.00;;;;;;;9.18;100.00;101551.97;5116755;28;20028;-37
2023/01/02 09:29:35;;;;;;;5.20;2.90;;;;;;;9.19;100.00;101569.81;5117025;28;20077;-37
2023/01/02 09:32:00;;;;;;;6.00;2.90;;;;;;;9.14;100.00;101562.31;5116124;28;20030;-37
2023/01/02 09:34:26;;;;;;;4.83;2.90;;;;;;;9.07;100.00;101547.16;5116511;28;20051;-37
2023/01/02 09:36:51;;;;;;;7.20;3.03;;;;;;;9.18;100.00;101568.16;5116401;28;20463;-37
2023/01/02 09:39:16;;;;;;;4.80;3.03;;;;;;;9.17;100.00;101571.88;5116599;28;20410;-37
2023/01/02 09:42:07;;;;;;;4.17;2.40;;;;;;;9.17;100.00;101577.25;5115919;28;20036;-37
2023/01/02 09:44:39;;;;;;;2.63;2.22;;;;;;;9.10;100.00;101579.97;5116785;28;20038;-37
2023/01/02 09:47:10;;;;;;;4.05;2.30;;;;;;;9.15;100.00;101590.16;5116901;28;20356;-37
2023/01/02 09:49:41;;;;;;;5.80;3.10;;;;;;;9.15;100.00;101587.44;5116640;28;20032;-37
2023/01/02 09:52:14;;;;;;;7.07;2.80;;;;;;;9.20;100.00;101590.34;5116203;28;20036;-37
2023/01/02 09:54:39;;;;;;;4.82;2.50;;;;;;;9.14;100.00;101580.38;5081637;28;20031;-37
2023/01/02 09:57:20;;;;;;;4.90;2.33;;;;;;;9.20;100.00;101601.16;5116527;28;20038;-37
2023/01/02 09:59:56;;;;;;;7.60;2.72;;;;;;;9.11;100.00;101578.91;5115568;28;20019;-37
2023/01/02 10:02:30;;;;;;;3.05;2.00;;;;;;;9.16;100.00;101589.94;5115851;28;20024;-36
2023/01/02 10:05:29;;;;;;;7.78;2.78;;;;;;;9.18;100.00;101595.16;5116630;28;20028;-37
2023/01/02 10:08:26;;;;;;;3.42;2.08;;;;;;;9.20;100.00;101603.84;5115923;28;20051;-36
2023/01/02 10:11:11;;;;;;;4.68;2.08;;;;;;;9.20;100.00;101603.84;5116165;28;20333;-37
2023/01/02 10:13:48;;;;;;;4.38;1.95;;;;;;;9.11;100.00;101600.50;5115482;28;20055;-36
2023/01/02 10:16:22;;;;;;;3.45;2.75;;;;;;;9.14;100.00;101596.59;5116175;28;20020;-36
2023/01/02 10:18:53;;;;;;;4.90;2.40;;;;;;;9.21;100.00;101605.50;5115533;28;20115;-37
2023/01/02 10:21:28;;;;;;;5.60;2.30;;;;;;;9.14;100.00;101604.69;5115735;28;20030;-36
2023/01/02 10:24:14;;;;;;;4.85;2.08;;;;;;;9.17;100.00;101596.16;5115952;28;20103;-36
2023/01/02 10:26:46;;;;;;;4.75;2.38;;;;;;;9.26;100.00;101617.34;5114752;28;20031;-36
2023/01/02 10:29:11;;;;;;;3.40;1.67;;;;;;;9.27;100.00;101615.47;5112323;28;20035;-37
2023/01/02 10:31:45;;;;;;;3.97;2.50;;;;;;;9.27;100.00;101610.09;5114988;28;20369;-37
2023/01/02 10:34:17;;;;;;;4.97;2.10;;;;;;;9.19;100.00;101605.72;5115787;28;20019;-37
2023/01/02 10:36:44;;;;;;;3.53;1.95;;;;;;;9.28;100.00;101617.19;5115512;28;20055;-37
2023/01/02 10:39:21;;;;;;;7.28;2.65;;;;;;;9.21;100.00;101605.50;5115452;28;20023;-37
2023/01/02 10:41:57;;;;;;;4.57;2.63;;;;;;;9.29;100.00;101630.47;5115068;28;20055;-37
2023/01/02 10:44:26;;;;;;;4.18;2.40;;;;;;;9.26;100.00;101636.25;5114775;28;20028;-36
2023/01/02 10:46:54;;;;;;;4.68;2.45;;;;;;;9.27;100.00;101639.78;5114755;28;20118;-36
2023/01/02 10:49:20;;;;;;;4.45;2.53;;;;;;;9.27;100.00;101626.28;5115195;28;20506;-37
2023/01/02 10:52:20;;;;;;;5.00;2.80;;;;;;;9.26;100.00;101619.22;5114542;28;20040;-37
2023/01/02 10:54:54;;;;;;;4.38;2.70;;;;;;;9.12;100.00;101606.72;5108355;28;20043;-37
2023/01/02 10:57:50;;;;;;;8.48;3.50;;;;;;;9.35;100.00;101636.06;5114467;28;20047;-37
2023/01/02 11:00:18;;;;;;;4.68;3.00;;;;;;;9.24;100.00;101629.41;5112401;28;20613;-36
2023/01/02 11:02:50;;;;;;;5.70;3.40;;;;;;;9.28;100.00;101628.78;5114970;28;20137;-36
2023/01/02 11:05:25;;;;;;;4.57;3.67;;;;;;;9.24;100.00;101632.09;5115214;28;20033;-37
2023/01/02 11:07:52;;;;;;;5.85;3.60;;;;;;;9.32;100.00;101636.47;5114433;28;20020;-36
2023/01/02 11:10:31;;;;;;;8.07;4.22;;;;;;;9.31;100.00;101643.75;5114330;28;20023;-36
2023/01/02 11:13:11;;;;;;;5.40;4.45;;;;;;;9.35;100.00;101654.97;5114791;28;20455;-37
2023/01/02 11:15:47;;;;;;;5.60;4.05;;;;;;;9.35;100.00;101666.59;5115026;28;20439;-36
2023/01/02 11:18:21;;;;;;;11.97;5.63;;;;;;;9.40;100.00;101657.88;5114508;28;20115;-37
2023/01/02 11:20:50;;;;;;;6.65;4.63;;;;;;;9.41;100.00;101657.69;5114355;28;20262;-36
2023/01/02 11:23:15;;;;;;;8.00;4.60;;;;;;;9.38;100.00;101658.09;5114444;28;20027;-37
2023/01/02 11:25:42;;;;;;;5.07;4.20;;;;;;;9.38;100.00;101659.97;5114116;28;20019;-37
2023/01/02 11:28:25;;;;;;;5.78;4.63;;;;;;;9.39;100.00;101656.22;5113889;28;20019;-36
2023/01/02 11:30:53;;;;;;;5.55;4.80;;;;;;;9.33;100.00;101643.56;5114873;28;20080;-36